Terminal Aerodrome Forecast
Issued by NWS

Home | Current Version | Previous Version | Text Only | Print | Product List | Glossary On
Versions: 1 2 3 4 5 6 7 8 9 10 11 12 13 14 15 16
007
FTUS43 KAPX 302329
TAFTVC
TAF
KTVC 302329Z 0100/0124 07008KT P6SM VCSH OVC015
     FM010600 07008KT 4SM -SHRA BR VCTS OVC015CB
     FM010900 08008KT 4SM -SHRA OVC015
     FM011200 12008KT P6SM VCSH OVC015
     FM011700 20009KT P6SM BKN035
     FM012300 21009KT P6SM OVC025=

USA.gov is the U.S. government's official web portal to all federal, state and local government web resources and services.